Time,TemperatureF,DewpointF,PressureIn,WindDirection,WindDirectionDegrees,WindSpeedMPH,WindSpeedGustMPH,Humidity,HourlyPrecipIn,Conditions,Clouds,dailyrainin,SoftwareType,DateUTC
2013-11-15 00:01:00,38.7,28.6,30.31,ENE,68,0.0,0.0,67,0.00,,,0.00,WUHU216HW,2013-11-15 05:01:00,
2013-11-15 00:02:00,38.7,28.6,30.31,ENE,68,0.0,0.0,67,0.00,,,0.00,WUHU216HW,2013-11-15 05:02:00,
2013-11-15 00:07:00,38.7,28.3,30.30,ENE,68,0.0,0.0,66,0.00,,,0.00,WUHU216HW,2013-11-15 05:07:00,
2013-11-15 00:12:00,38.7,28.3,30.31,ENE,68,0.0,0.0,66,0.00,,,0.00,WUHU216HW,2013-11-15 05:12:00,
2013-11-15 00:17:00,38.7,28.3,30.31,ENE,68,0.0,0.0,66,0.00,,,0.00,WUHU216HW,2013-11-15 05:17:00,
2013-11-15 00:22:00,38.5,28.4,30.31,ENE,68,0.0,0.0,67,0.00,,,0.00,WUHU216HW,2013-11-15 05:22:00,
2013-11-15 00:27:00,38.5,28.4,30.31,ENE,68,0.0,0.0,67,0.00,,,0.00,WUHU216HW,2013-11-15 05:27:00,
2013-11-15 00:32:00,38.3,28.3,30.29,ENE,68,0.3,0.4,67,0.00,,,0.00,WUHU216HW,2013-11-15 05:32:00,
2013-11-15 00:37:00,38.3,28.3,30.29,ENE,68,0.0,0.4,67,0.00,,,0.00,WUHU216HW,2013-11-15 05:37:00,
2013-11-15 00:42:00,38.3,28.3,30.30,ENE,68,0.0,0.4,67,0.00,,,0.00,WUHU216HW,2013-11-15 05:42:00,
2013-11-15 00:47:00,38.2,28.2,30.30,NE,45,0.3,0.4,67,0.00,,,0.00,WUHU216HW,2013-11-15 05:47:00,
2013-11-15 00:52:00,38.2,28.5,30.29,NE,45,0.0,0.4,68,0.00,,,0.00,WUHU216HW,2013-11-15 05:52:00,
2013-11-15 00:57:00,38.2,28.9,30.29,NE,45,0.0,0.4,69,0.00,,,0.00,WUHU216HW,2013-11-15 05:57:00,
2013-11-15 01:02:00,38.0,28.7,30.30,NNW,338,0.0,0.4,69,0.00,,,0.00,WUHU216HW,2013-11-15 06:02:00,
2013-11-15 01:07:00,38.0,28.7,30.29,NNW,338,0.0,0.4,69,0.00,,,0.00,WUHU216HW,2013-11-15 06:07:00,
2013-11-15 01:12:00,38.0,28.7,30.29,NNW,338,0.0,0.0,69,0.00,,,0.00,WUHU216HW,2013-11-15 06:12:00,
2013-11-15 01:17:00,38.2,28.9,30.29,NNW,338,0.0,0.0,69,0.00,,,0.00,WUHU216HW,2013-11-15 06:17:00,
2013-11-15 01:22:00,38.2,28.9,30.30,NNW,338,0.0,0.0,69,0.00,,,0.00,WUHU216HW,2013-11-15 06:22:00,
2013-11-15 01:27:00,38.2,28.9,30.30,NNW,338,0.0,0.0,69,0.00,,,0.00,WUHU216HW,2013-11-15 06:27:00,
2013-11-15 01:32:00,38.3,29.4,30.29,NNW,338,0.0,0.0,70,0.00,,,0.00,WUHU216HW,2013-11-15 06:32:00,
2013-11-15 01:37:00,38.3,29.4,30.29,NNW,338,0.0,0.4,70,0.00,,,0.00,WUHU216HW,2013-11-15 06:37:00,
2013-11-15 01:42:00,38.3,29.4,30.29,NNW,338,0.0,0.4,70,0.00,,,0.00,WUHU216HW,2013-11-15 06:42:00,
2013-11-15 01:47:00,38.3,29.4,30.29,NNW,338,0.0,0.0,70,0.00,,,0.00,WUHU216HW,2013-11-15 06:47:00,
2013-11-15 01:52:00,38.3,29.4,30.29,NNW,338,0.0,0.0,70,0.00,,,0.00,WUHU216HW,2013-11-15 06:52:00,
2013-11-15 01:57:00,38.3,29.4,30.29,NNW,338,0.0,0.0,70,0.00,,,0.00,WUHU216HW,2013-11-15 06:57:00,
2013-11-15 02:02:00,38.3,29.4,30.29,North,0,0.4,0.4,70,0.00,,,0.00,WUHU216HW,2013-11-15 07:02:00,
2013-11-15 02:07:00,38.3,29.8,30.28,North,0,0.9,0.9,71,0.00,,,0.00,WUHU216HW,2013-11-15 07:07:00,
2013-11-15 02:12:00,38.5,30.0,30.28,North,0,0.2,0.9,71,0.00,,,0.00,WUHU216HW,2013-11-15 07:12:00,
2013-11-15 02:18:00,38.5,30.0,30.28,SE,135,0.0,0.9,71,0.00,,,0.00,WUHU216HW,2013-11-15 07:18:00,
2013-11-15 02:23:00,38.5,30.0,30.28,SE,135,0.0,0.9,71,0.00,,,0.00,WUHU216HW,2013-11-15 07:23:00,
2013-11-15 02:28:00,38.5,30.2,30.28,NNW,330,0.4,0.7,72,0.00,,,0.00,WUHU216HW,2013-11-15 07:28:00,
2013-11-15 02:33:00,38.7,30.4,30.29,NW,315,0.0,0.7,72,0.00,,,0.00,WUHU216HW,2013-11-15 07:33:00,
2013-11-15 02:38:00,38.9,30.6,30.28,NW,315,0.0,0.0,72,0.00,,,0.00,WUHU216HW,2013-11-15 07:38:00,
2013-11-15 02:43:00,39.2,31.0,30.28,NW,315,0.0,0.0,72,0.00,,,0.00,WUHU216HW,2013-11-15 07:43:00,
2013-11-15 02:48:00,39.4,31.2,30.28,NNE,23,0.0,0.4,72,0.00,,,0.00,WUHU216HW,2013-11-15 07:48:00,
2013-11-15 02:53:00,39.6,31.6,30.27,NNE,23,0.4,0.4,73,0.00,,,0.00,WUHU216HW,2013-11-15 07:53:00,
2013-11-15 02:58:00,40.0,32.0,30.28,NNE,23,0.0,0.4,73,0.00,,,0.00,WUHU216HW,2013-11-15 07:58:00,
2013-11-15 03:03:00,40.3,32.0,30.27,ESE,113,0.4,0.4,72,0.00,,,0.00,WUHU216HW,2013-11-15 08:03:00,
2013-11-15 03:08:00,40.5,32.1,30.26,ESE,113,0.2,0.9,72,0.00,,,0.00,WUHU216HW,2013-11-15 08:08:00,
2013-11-15 03:13:00,40.7,32.3,30.27,ESE,113,0.0,0.9,72,0.00,,,0.00,WUHU216HW,2013-11-15 08:13:00,
2013-11-15 03:18:00,40.7,32.7,30.27,ESE,113,0.0,0.0,73,0.00,,,0.00,WUHU216HW,2013-11-15 08:18:00,
2013-11-15 03:23:00,41.0,32.7,30.26,ESE,113,0.0,0.0,72,0.00,,,0.00,WUHU216HW,2013-11-15 08:23:00,
2013-11-15 03:28:00,41.2,32.9,30.26,ESE,113,0.0,0.0,72,0.00,,,0.00,WUHU216HW,2013-11-15 08:28:00,
2013-11-15 03:33:00,41.4,33.0,30.26,East,90,0.0,0.0,72,0.00,,,0.00,WUHU216HW,2013-11-15 08:33:00,
2013-11-15 03:38:00,41.8,33.8,30.26,NNE,23,0.4,0.4,73,0.00,,,0.00,WUHU216HW,2013-11-15 08:38:00,
2013-11-15 03:43:00,42.1,34.1,30.26,NNE,23,0.0,0.4,73,0.00,,,0.00,WUHU216HW,2013-11-15 08:43:00,
2013-11-15 03:48:00,42.1,33.8,30.26,NNE,23,0.3,0.4,72,0.00,,,0.00,WUHU216HW,2013-11-15 08:48:00,
2013-11-15 03:53:00,42.5,34.1,30.26,East,90,0.4,0.4,72,0.00,,,0.00,WUHU216HW,2013-11-15 08:53:00,
2013-11-15 03:58:00,42.7,34.3,30.26,NE,45,0.0,0.4,72,0.00,,,0.00,WUHU216HW,2013-11-15 08:58:00,
2013-11-15 04:03:00,42.7,34.3,30.26,NE,45,0.0,0.4,72,0.00,,,0.00,WUHU216HW,2013-11-15 09:03:00,
2013-11-15 04:08:00,42.8,34.2,30.26,NE,45,0.0,0.0,71,0.00,,,0.00,WUHU216HW,2013-11-15 09:08:00,
2013-11-15 04:13:00,42.8,34.5,30.26,NE,45,0.0,0.0,72,0.00,,,0.00,WUHU216HW,2013-11-15 09:13:00,
2013-11-15 04:18:00,43.2,34.5,30.26,NE,45,0.0,0.0,71,0.00,,,0.00,WUHU216HW,2013-11-15 09:18:00,
2013-11-15 04:23:00,43.2,34.5,30.26,NE,45,0.0,0.0,71,0.00,,,0.00,WUHU216HW,2013-11-15 09:23:00,
2013-11-15 04:28:00,43.2,34.5,30.26,NE,45,0.0,0.0,71,0.00,,,0.00,WUHU216HW,2013-11-15 09:28:00,
2013-11-15 04:33:00,43.2,34.5,30.26,NE,45,0.0,0.0,71,0.00,,,0.00,WUHU216HW,2013-11-15 09:33:00,
2013-11-15 04:38:00,43.4,35.0,30.26,ESE,113,2.0,2.0,72,0.00,,,0.00,WUHU216HW,2013-11-15 09:38:00,
2013-11-15 04:43:00,43.6,35.2,30.26,East,86,0.5,2.0,72,0.00,,,0.00,WUHU216HW,2013-11-15 09:43:00,
2013-11-15 04:48:00,43.7,35.0,30.26,NNE,23,0.0,1.8,71,0.00,,,0.00,WUHU216HW,2013-11-15 09:48:00,
2013-11-15 04:53:00,43.9,35.5,30.27,NNE,23,0.0,0.2,72,0.00,,,0.00,WUHU216HW,2013-11-15 09:53:00,
2013-11-15 04:58:00,44.1,35.6,30.26,NNE,23,0.0,0.0,72,0.00,,,0.00,WUHU216HW,2013-11-15 09:58:00,
2013-11-15 05:03:00,44.3,36.2,30.27,NE,55,0.3,0.4,73,0.00,,,0.00,WUHU216HW,2013-11-15 10:03:00,
2013-11-15 05:08:00,44.6,36.2,30.27,SE,126,0.5,2.0,72,0.00,,,0.00,WUHU216HW,2013-11-15 10:08:00,
2013-11-15 05:13:00,44.6,36.2,30.26,East,99,0.8,2.0,72,0.00,,,0.00,WUHU216HW,2013-11-15 10:13:00,
2013-11-15 05:18:00,45.0,36.6,30.26,East,86,0.3,1.1,72,0.00,,,0.00,WUHU216HW,2013-11-15 10:18:00,
2013-11-15 05:23:00,45.0,36.6,30.26,North,0,0.3,1.1,72,0.00,,,0.00,WUHU216HW,2013-11-15 10:23:00,
2013-11-15 05:28:00,45.2,36.4,30.26,North,0,0.2,0.4,71,0.00,,,0.00,WUHU216HW,2013-11-15 10:28:00,
2013-11-15 05:33:00,45.4,36.6,30.26,East,90,0.9,1.1,71,0.00,,,0.00,WUHU216HW,2013-11-15 10:33:00,
2013-11-15 05:38:00,45.4,36.6,30.26,East,90,0.4,1.1,71,0.00,,,0.00,WUHU216HW,2013-11-15 10:38:00,
2013-11-15 05:43:00,45.5,36.7,30.26,East,90,0.9,1.1,71,0.00,,,0.00,WUHU216HW,2013-11-15 10:43:00,
2013-11-15 05:48:00,45.5,36.7,30.26,East,90,0.4,1.3,71,0.00,,,0.00,WUHU216HW,2013-11-15 10:48:00,
2013-11-15 05:53:00,45.7,36.9,30.26,East,90,1.8,1.8,71,0.00,,,0.00,WUHU216HW,2013-11-15 10:53:00,
2013-11-15 05:58:00,45.7,36.9,30.26,ENE,68,2.5,3.4,71,0.00,,,0.00,WUHU216HW,2013-11-15 10:58:00,
2013-11-15 06:03:00,45.7,36.9,30.26,ESE,108,1.3,3.4,71,0.00,,,0.00,WUHU216HW,2013-11-15 11:03:00,
2013-11-15 06:08:00,45.7,36.9,30.26,ESE,113,0.4,2.5,71,0.00,,,0.00,WUHU216HW,2013-11-15 11:08:00,
2013-11-15 06:13:00,45.7,36.5,30.27,SE,133,0.5,1.8,70,0.00,,,0.00,WUHU216HW,2013-11-15 11:13:00,
2013-11-15 06:18:00,45.7,36.9,30.26,East,100,1.3,1.8,71,0.00,,,0.00,WUHU216HW,2013-11-15 11:18:00,
2013-11-15 06:23:00,45.7,36.5,30.27,ENE,68,0.0,1.8,70,0.00,,,0.00,WUHU216HW,2013-11-15 11:23:00,
2013-11-15 06:28:00,45.7,36.5,30.27,ENE,68,0.2,1.8,70,0.00,,,0.00,WUHU216HW,2013-11-15 11:28:00,
2013-11-15 06:33:00,45.7,36.5,30.27,ENE,68,0.0,0.4,70,0.00,,,0.00,WUHU216HW,2013-11-15 11:33:00,
2013-11-15 06:38:00,45.7,36.5,30.27,ENE,68,1.3,1.3,70,0.00,,,0.00,WUHU216HW,2013-11-15 11:38:00,
2013-11-15 06:43:00,45.7,36.5,30.26,ESE,113,1.1,1.3,70,0.00,,,0.00,WUHU216HW,2013-11-15 11:43:00,
2013-11-15 06:48:00,45.7,36.9,30.27,NE,45,0.2,1.8,71,0.00,,,0.00,WUHU216HW,2013-11-15 11:48:00,
2013-11-15 06:53:00,45.7,36.5,30.26,North,0,0.0,1.8,70,0.00,,,0.00,WUHU216HW,2013-11-15 11:53:00,
2013-11-15 06:58:00,45.7,36.5,30.26,SE,135,0.7,1.1,70,0.00,,,0.00,WUHU216HW,2013-11-15 11:58:00,
2013-11-15 07:03:00,45.7,36.9,30.26,East,90,1.1,1.8,71,0.00,,,0.00,WUHU216HW,2013-11-15 12:03:00,
2013-11-15 07:08:00,45.9,37.1,30.26,East,90,0.7,1.8,71,0.00,,,0.00,WUHU216HW,2013-11-15 12:08:00,
2013-11-15 07:13:00,45.9,37.1,30.26,North,0,0.3,1.8,71,0.00,,,0.00,WUHU216HW,2013-11-15 12:13:00,
2013-11-15 07:18:00,45.9,37.1,30.26,ESE,113,1.6,1.6,71,0.00,,,0.00,WUHU216HW,2013-11-15 12:18:00,
2013-11-15 07:23:00,46.1,37.3,30.26,ESE,102,1.3,1.8,71,0.00,,,0.00,WUHU216HW,2013-11-15 12:23:00,
2013-11-15 07:28:00,46.1,37.3,30.26,East,90,0.0,1.8,71,0.00,,,0.00,WUHU216HW,2013-11-15 12:28:00,
2013-11-15 07:33:00,46.3,37.5,30.26,East,90,0.2,0.2,71,0.00,,,0.00,WUHU216HW,2013-11-15 12:33:00,
2013-11-15 07:38:00,46.4,38.0,30.26,ENE,68,2.5,2.5,72,0.00,,,0.00,WUHU216HW,2013-11-15 12:38:00,
2013-11-15 07:43:00,46.8,38.3,30.26,East,85,1.5,4.0,72,0.00,,,0.00,WUHU216HW,2013-11-15 12:43:00,
2013-11-15 07:48:00,47.2,38.3,30.26,East,90,1.6,4.0,71,0.00,,,0.00,WUHU216HW,2013-11-15 12:48:00,
2013-11-15 07:53:00,47.3,38.4,30.27,ESE,113,2.0,3.1,71,0.00,,,0.00,WUHU216HW,2013-11-15 12:53:00,
2013-11-15 07:58:00,47.9,38.5,30.27,East,97,3.3,4.0,70,0.00,,,0.00,WUHU216HW,2013-11-15 12:58:00,
2013-11-15 08:03:00,48.2,38.9,30.27,East,86,1.2,4.0,70,0.00,,,0.00,WUHU216HW,2013-11-15 13:03:00,
2013-11-15 08:08:00,48.6,38.9,30.27,ESE,113,2.2,2.2,69,0.00,,,0.00,WUHU216HW,2013-11-15 13:08:00,
2013-11-15 08:13:00,48.8,39.1,30.28,NNW,338,0.0,3.4,69,0.00,,,0.00,WUHU216HW,2013-11-15 13:13:00,
2013-11-15 08:18:00,49.0,38.8,30.29,North,0,0.2,3.4,68,0.00,,,0.00,WUHU216HW,2013-11-15 13:18:00,
2013-11-15 08:23:00,49.1,39.0,30.29,ESE,113,2.0,2.0,68,0.00,,,0.00,WUHU216HW,2013-11-15 13:23:00,
2013-11-15 08:28:00,49.3,39.2,30.29,ENE,68,0.4,2.0,68,0.00,,,0.00,WUHU216HW,2013-11-15 13:28:00,
2013-11-15 08:33:00,49.3,39.2,30.29,East,84,2.1,3.6,68,0.00,,,0.00,WUHU216HW,2013-11-15 13:33:00,
2013-11-15 08:38:00,49.5,39.3,30.29,ESE,113,2.7,4.7,68,0.00,,,0.00,WUHU216HW,2013-11-15 13:38:00,
2013-11-15 08:43:00,49.5,39.3,30.29,NE,45,2.5,4.7,68,0.00,,,0.00,WUHU216HW,2013-11-15 13:43:00,
2013-11-15 08:48:00,49.7,39.5,30.29,ESE,111,2.9,3.6,68,0.00,,,0.00,WUHU216HW,2013-11-15 13:48:00,
2013-11-15 08:53:00,50.0,39.9,30.29,ENE,75,2.9,5.8,68,0.00,,,0.00,WUHU216HW,2013-11-15 13:53:00,
2013-11-15 08:58:00,50.4,39.9,30.29,East,95,2.0,5.8,67,0.00,,,0.00,WUHU216HW,2013-11-15 13:58:00,
2013-11-15 09:03:00,50.6,40.4,30.28,East,90,4.0,4.0,68,0.00,,,0.00,WUHU216HW,2013-11-15 14:03:00,
2013-11-15 09:08:00,50.9,40.8,30.28,ESE,111,2.8,4.0,68,0.00,,,0.00,WUHU216HW,2013-11-15 14:08:00,
2013-11-15 09:13:00,51.3,40.3,30.28,ESE,102,4.6,6.3,66,0.00,,,0.00,WUHU216HW,2013-11-15 14:13:00,
2013-11-15 09:18:00,51.5,40.5,30.28,ESE,111,2.8,6.3,66,0.00,,,0.00,WUHU216HW,2013-11-15 14:18:00,
2013-11-15 09:23:00,51.8,40.4,30.28,East,90,2.5,4.9,65,0.00,,,0.00,WUHU216HW,2013-11-15 14:23:00,
2013-11-15 09:28:00,52.2,40.8,30.28,ESE,108,4.2,6.5,65,0.00,,,0.00,WUHU216HW,2013-11-15 14:28:00,
2013-11-15 09:33:00,52.6,40.7,30.28,ESE,113,6.9,9.2,64,0.00,,,0.00,WUHU216HW,2013-11-15 14:33:00,
2013-11-15 09:38:00,52.7,40.9,30.28,East,84,3.2,9.2,64,0.00,,,0.00,WUHU216HW,2013-11-15 14:38:00,
2013-11-15 09:43:00,52.9,41.1,30.28,East,90,4.3,6.9,64,0.00,,,0.00,WUHU216HW,2013-11-15 14:43:00,
2013-11-15 09:48:00,53.1,41.2,30.28,East,95,4.8,6.7,64,0.00,,,0.00,WUHU216HW,2013-11-15 14:48:00,
2013-11-15 09:53:00,53.3,41.0,30.28,ESE,104,4.6,6.7,63,0.00,,,0.00,WUHU216HW,2013-11-15 14:53:00,
2013-11-15 09:58:00,53.5,41.1,30.28,ENE,78,3.0,6.0,63,0.00,,,0.00,WUHU216HW,2013-11-15 14:58:00,
2013-11-15 10:03:00,53.5,41.1,30.29,East,98,3.0,4.7,63,0.00,,,0.00,WUHU216HW,2013-11-15 15:03:00,
2013-11-15 10:08:00,53.6,41.3,30.29,East,100,2.3,5.1,63,0.00,,,0.00,WUHU216HW,2013-11-15 15:08:00,
2013-11-15 10:13:00,54.0,41.7,30.29,East,90,4.7,5.8,63,0.00,,,0.00,WUHU216HW,2013-11-15 15:13:00,
2013-11-15 10:18:00,54.4,42.4,30.28,ESE,110,2.8,6.0,64,0.00,,,0.00,WUHU216HW,2013-11-15 15:18:00,
2013-11-15 10:23:00,54.4,42.4,30.28,ESE,109,4.7,6.0,64,0.00,,,0.00,WUHU216HW,2013-11-15 15:23:00,
2013-11-15 10:28:00,54.7,42.3,30.28,East,85,2.7,5.4,63,0.00,,,0.00,WUHU216HW,2013-11-15 15:28:00,
2013-11-15 10:33:00,55.1,42.7,30.28,ESE,113,2.9,4.0,63,0.00,,,0.00,WUHU216HW,2013-11-15 15:33:00,
2013-11-15 10:38:00,55.3,42.9,30.28,East,85,4.2,6.9,63,0.00,,,0.00,WUHU216HW,2013-11-15 15:38:00,
2013-11-15 10:43:00,55.6,43.2,30.27,NE,45,5.1,6.9,63,0.00,,,0.00,WUHU216HW,2013-11-15 15:43:00,
2013-11-15 10:48:00,56.2,43.8,30.27,East,82,3.5,5.8,63,0.00,,,0.00,WUHU216HW,2013-11-15 15:48:00,
2013-11-15 10:53:00,56.5,43.7,30.26,ESE,113,6.1,6.3,62,0.00,,,0.00,WUHU216HW,2013-11-15 15:53:00,
2013-11-15 10:58:00,56.7,43.8,30.26,East,83,3.0,6.5,62,0.00,,,0.00,WUHU216HW,2013-11-15 15:58:00,
2013-11-15 11:03:00,56.9,44.0,30.26,SE,134,4.0,6.5,62,0.00,,,0.00,WUHU216HW,2013-11-15 16:03:00,
2013-11-15 11:08:00,57.2,44.4,30.25,ESE,113,4.5,4.9,62,0.00,,,0.00,WUHU216HW,2013-11-15 16:08:00,
2013-11-15 11:13:00,58.0,45.0,30.25,NE,56,3.0,5.4,62,0.00,,,0.00,WUHU216HW,2013-11-15 16:13:00,
2013-11-15 11:18:00,58.3,45.4,30.25,ESE,119,3.0,8.3,62,0.00,,,0.00,WUHU216HW,2013-11-15 16:18:00,
2013-11-15 11:23:00,59.0,46.0,30.25,ESE,111,7.8,10.5,62,0.00,,,0.00,WUHU216HW,2013-11-15 16:23:00,
2013-11-15 11:28:00,59.8,46.7,30.25,SE,139,3.5,10.5,62,0.00,,,0.00,WUHU216HW,2013-11-15 16:28:00,
2013-11-15 11:33:00,60.1,47.1,30.25,ENE,68,2.7,7.6,62,0.00,,,0.00,WUHU216HW,2013-11-15 16:33:00,
2013-11-15 11:38:00,60.1,47.9,30.24,East,90,6.7,6.9,64,0.00,,,0.00,WUHU216HW,2013-11-15 16:38:00,
2013-11-15 11:43:00,60.7,48.4,30.24,East,90,4.3,6.7,64,0.00,,,0.00,WUHU216HW,2013-11-15 16:43:00,
2013-11-15 11:48:00,60.8,48.3,30.24,SE,135,4.5,6.7,63,0.00,,,0.00,WUHU216HW,2013-11-15 16:48:00,
2013-11-15 11:53:00,61.0,48.4,30.23,ESE,112,5.9,8.7,63,0.00,,,0.00,WUHU216HW,2013-11-15 16:53:00,
2013-11-15 11:58:00,61.2,48.5,30.23,East,92,4.8,9.2,63,0.00,,,0.00,WUHU216HW,2013-11-15 16:58:00,
2013-11-15 12:03:00,61.4,48.7,30.23,East,90,2.5,9.2,63,0.00,,,0.00,WUHU216HW,2013-11-15 17:03:00,
2013-11-15 12:08:00,61.6,49.3,30.23,East,99,4.1,6.5,64,0.00,,,0.00,WUHU216HW,2013-11-15 17:08:00,
2013-11-15 12:13:00,61.7,49.4,30.23,East,90,7.8,8.5,64,0.00,,,0.00,WUHU216HW,2013-11-15 17:13:00,
2013-11-15 12:18:00,61.9,49.6,30.23,ESE,107,4.0,8.5,64,0.00,,,0.00,WUHU216HW,2013-11-15 17:18:00,
2013-11-15 12:23:00,62.1,49.3,30.22,East,90,4.0,7.8,63,0.00,,,0.00,WUHU216HW,2013-11-15 17:23:00,
2013-11-15 12:28:00,62.3,50.0,30.22,ESE,113,4.7,7.8,64,0.00,,,0.00,WUHU216HW,2013-11-15 17:28:00,
2013-11-15 12:33:00,62.6,50.2,30.21,ESE,113,8.3,8.3,64,0.00,,,0.00,WUHU216HW,2013-11-15 17:33:00,
2013-11-15 12:38:00,62.8,50.4,30.21,ESE,113,4.3,8.3,64,0.00,,,0.00,WUHU216HW,2013-11-15 17:38:00,
2013-11-15 12:43:00,63.0,50.2,30.21,SE,131,2.1,8.3,63,0.00,,,0.00,WUHU216HW,2013-11-15 17:43:00,
2013-11-15 12:48:00,63.4,50.5,30.20,East,90,8.1,8.1,63,0.00,,,0.00,WUHU216HW,2013-11-15 17:48:00,
2013-11-15 12:53:00,63.4,50.5,30.19,ESE,102,4.8,8.1,63,0.00,,,0.00,WUHU216HW,2013-11-15 17:53:00,
2013-11-15 12:58:00,63.5,50.7,30.19,ENE,68,6.3,8.1,63,0.00,,,0.00,WUHU216HW,2013-11-15 17:58:00,
2013-11-15 13:03:00,63.4,51.0,30.19,East,91,5.3,8.5,64,0.00,,,0.00,WUHU216HW,2013-11-15 18:03:00,
2013-11-15 13:08:00,63.5,50.7,30.19,ESE,113,4.7,8.5,63,0.00,,,0.00,WUHU216HW,2013-11-15 18:08:00,
2013-11-15 13:13:00,63.9,51.0,30.18,ESE,109,5.5,6.7,63,0.00,,,0.00,WUHU216HW,2013-11-15 18:13:00,
2013-11-15 13:18:00,64.3,51.4,30.18,ESE,108,6.4,8.1,63,0.00,,,0.00,WUHU216HW,2013-11-15 18:18:00,
2013-11-15 13:23:00,64.1,51.2,30.18,East,98,5.2,8.1,63,0.00,,,0.00,WUHU216HW,2013-11-15 18:23:00,
2013-11-15 13:28:00,64.3,51.4,30.17,East,84,2.0,6.0,63,0.00,,,0.00,WUHU216HW,2013-11-15 18:28:00,
2013-11-15 13:33:00,64.4,51.5,30.17,ESE,117,6.3,8.9,63,0.00,,,0.00,WUHU216HW,2013-11-15 18:33:00,
2013-11-15 13:38:00,64.4,51.1,30.16,SE,130,2.8,8.9,62,0.00,,,0.00,WUHU216HW,2013-11-15 18:38:00,
2013-11-15 13:43:00,64.6,51.3,30.16,East,90,6.7,7.2,62,0.00,,,0.00,WUHU216HW,2013-11-15 18:43:00,
2013-11-15 13:48:00,64.6,51.3,30.16,ENE,71,3.2,7.2,62,0.00,,,0.00,WUHU216HW,2013-11-15 18:48:00,
2013-11-15 13:53:00,64.8,51.5,30.16,ESE,121,3.0,6.9,62,0.00,,,0.00,WUHU216HW,2013-11-15 18:53:00,
2013-11-15 13:58:00,64.6,51.3,30.16,ESE,105,3.3,6.9,62,0.00,,,0.00,WUHU216HW,2013-11-15 18:58:00,
2013-11-15 14:03:00,64.6,51.3,30.16,ESE,111,4.0,5.4,62,0.00,,,0.00,WUHU216HW,2013-11-15 19:03:00,
2013-11-15 14:08:00,64.6,51.3,30.16,East,97,5.7,6.9,62,0.00,,,0.00,WUHU216HW,2013-11-15 19:08:00,
2013-11-15 14:13:00,64.4,51.5,30.16,ENE,68,2.9,6.9,63,0.00,,,0.00,WUHU216HW,2013-11-15 19:13:00,
2013-11-15 14:18:00,64.3,51.4,30.16,East,100,2.7,6.7,63,0.00,,,0.00,WUHU216HW,2013-11-15 19:18:00,
2013-11-15 14:23:00,64.1,51.6,30.16,ESE,113,4.7,6.7,64,0.00,,,0.00,WUHU216HW,2013-11-15 19:23:00,
2013-11-15 14:28:00,64.1,51.2,30.16,East,97,2.8,6.7,63,0.00,,,0.00,WUHU216HW,2013-11-15 19:28:00,
2013-11-15 14:33:00,64.3,51.4,30.15,East,90,4.1,6.0,63,0.00,,,0.00,WUHU216HW,2013-11-15 19:33:00,
2013-11-15 14:38:00,64.1,51.6,30.16,East,87,3.3,6.5,64,0.00,,,0.00,WUHU216HW,2013-11-15 19:38:00,
2013-11-15 14:43:00,63.9,51.5,30.15,ESE,113,3.1,6.5,64,0.00,,,0.00,WUHU216HW,2013-11-15 19:43:00,
2013-11-15 14:48:00,63.9,51.5,30.15,NE,55,3.1,6.0,64,0.00,,,0.00,WUHU216HW,2013-11-15 19:48:00,
2013-11-15 14:53:00,63.9,51.8,30.15,East,90,4.9,6.0,65,0.00,,,0.00,WUHU216HW,2013-11-15 19:53:00,
2013-11-15 14:58:00,63.7,51.7,30.15,ESE,113,4.5,5.6,65,0.00,,,0.00,WUHU216HW,2013-11-15 19:58:00,
2013-11-15 15:03:00,63.7,51.7,30.15,East,90,3.4,5.6,65,0.00,,,0.00,WUHU216HW,2013-11-15 20:03:00,
2013-11-15 15:08:00,63.5,51.6,30.15,East,86,2.1,4.5,65,0.00,,,0.00,WUHU216HW,2013-11-15 20:08:00,
2013-11-15 15:13:00,63.5,51.6,30.14,East,90,3.6,3.6,65,0.00,,,0.00,WUHU216HW,2013-11-15 20:13:00,
2013-11-15 15:18:00,63.4,51.4,30.14,ESE,113,2.5,3.6,65,0.00,,,0.00,WUHU216HW,2013-11-15 20:18:00,
2013-11-15 15:23:00,63.4,51.4,30.14,ESE,107,3.4,7.8,65,0.00,,,0.00,WUHU216HW,2013-11-15 20:23:00,
2013-11-15 15:28:00,63.4,51.4,30.14,ESE,113,4.0,7.8,65,0.00,,,0.00,WUHU216HW,2013-11-15 20:28:00,
2013-11-15 15:33:00,63.4,51.8,30.13,East,90,5.6,6.5,66,0.00,,,0.00,WUHU216HW,2013-11-15 20:33:00,
2013-11-15 15:38:00,63.2,51.6,30.14,ESE,113,3.6,6.5,66,0.00,,,0.00,WUHU216HW,2013-11-15 20:38:00,
2013-11-15 15:43:00,63.4,51.8,30.15,East,90,2.5,6.5,66,0.00,,,0.00,WUHU216HW,2013-11-15 20:43:00,
2013-11-15 15:48:00,63.4,51.8,30.14,ESE,113,2.8,5.4,66,0.00,,,0.00,WUHU216HW,2013-11-15 20:48:00,
2013-11-15 15:53:00,63.5,51.9,30.14,East,90,4.0,5.4,66,0.00,,,0.00,WUHU216HW,2013-11-15 20:53:00,
2013-11-15 15:58:00,63.7,52.1,30.14,ENE,68,3.6,5.1,66,0.00,,,0.00,WUHU216HW,2013-11-15 20:58:00,
2013-11-15 16:03:00,63.5,51.9,30.14,ESE,102,3.2,4.7,66,0.00,,,0.00,WUHU216HW,2013-11-15 21:03:00,
2013-11-15 16:08:00,63.5,51.9,30.14,ESE,103,2.9,6.3,66,0.00,,,0.00,WUHU216HW,2013-11-15 21:08:00,
2013-11-15 16:13:00,63.2,51.6,30.14,ESE,103,3.3,6.3,66,0.00,,,0.00,WUHU216HW,2013-11-15 21:13:00,
2013-11-15 16:18:00,63.2,52.0,30.14,East,100,2.4,5.1,67,0.00,,,0.00,WUHU216HW,2013-11-15 21:18:00,
2013-11-15 16:23:00,63.0,51.8,30.14,ESE,111,2.6,4.0,67,0.00,,,0.00,WUHU216HW,2013-11-15 21:23:00,
2013-11-15 16:28:00,62.8,52.1,30.13,NE,45,3.4,4.0,68,0.00,,,0.00,WUHU216HW,2013-11-15 21:28:00,
2013-11-15 16:33:00,62.6,51.9,30.14,East,87,2.0,3.4,68,0.00,,,0.00,WUHU216HW,2013-11-15 21:33:00,
2013-11-15 16:38:00,62.6,51.9,30.14,ENE,66,0.7,3.4,68,0.00,,,0.00,WUHU216HW,2013-11-15 21:38:00,
2013-11-15 16:43:00,62.3,52.0,30.14,ESE,104,1.9,3.4,69,0.00,,,0.00,WUHU216HW,2013-11-15 21:43:00,
2013-11-15 16:48:00,62.3,52.0,30.15,East,90,2.7,3.4,69,0.00,,,0.00,WUHU216HW,2013-11-15 21:48:00,
2013-11-15 16:53:00,62.1,52.3,30.14,ESE,109,0.8,2.7,70,0.00,,,0.00,WUHU216HW,2013-11-15 21:53:00,
2013-11-15 16:58:00,61.9,52.1,30.14,East,98,1.0,2.7,70,0.00,,,0.00,WUHU216HW,2013-11-15 21:58:00,
2013-11-15 17:03:00,61.9,51.7,30.14,East,85,0.9,2.5,69,0.00,,,0.00,WUHU216HW,2013-11-15 22:03:00,
2013-11-15 17:08:00,61.7,51.5,30.14,ESE,104,2.4,3.1,69,0.00,,,0.00,WUHU216HW,2013-11-15 22:08:00,
2013-11-15 17:13:00,61.6,51.4,30.14,ESE,113,2.5,3.1,69,0.00,,,0.00,WUHU216HW,2013-11-15 22:13:00,
2013-11-15 17:18:00,61.6,51.4,30.15,ESE,113,1.3,3.1,69,0.00,,,0.00,WUHU216HW,2013-11-15 22:18:00,
2013-11-15 17:23:00,61.4,51.2,30.15,East,92,1.6,2.5,69,0.00,,,0.00,WUHU216HW,2013-11-15 22:23:00,
2013-11-15 17:28:00,61.2,51.0,30.15,ENE,68,1.1,2.5,69,0.00,,,0.00,WUHU216HW,2013-11-15 22:28:00,
2013-11-15 17:33:00,60.8,51.5,30.15,East,90,2.5,2.5,71,0.00,,,0.00,WUHU216HW,2013-11-15 22:33:00,
2013-11-15 17:38:00,60.8,51.5,30.15,East,90,2.9,2.9,71,0.00,,,0.00,WUHU216HW,2013-11-15 22:38:00,
2013-11-15 17:43:00,60.5,51.1,30.15,East,98,1.0,2.9,71,0.00,,,0.00,WUHU216HW,2013-11-15 22:43:00,
2013-11-15 17:48:00,60.5,51.5,30.15,East,96,1.5,2.5,72,0.00,,,0.00,WUHU216HW,2013-11-15 22:48:00,
2013-11-15 17:53:00,60.3,51.7,30.15,SE,135,1.1,2.9,73,0.00,,,0.00,WUHU216HW,2013-11-15 22:53:00,
2013-11-15 17:58:00,60.1,51.5,30.15,East,89,1.6,2.9,73,0.00,,,0.00,WUHU216HW,2013-11-15 22:58:00,
2013-11-15 18:03:00,60.1,51.5,30.15,ESE,104,1.4,2.9,73,0.00,,,0.00,WUHU216HW,2013-11-15 23:03:00,
2013-11-15 18:08:00,60.1,51.5,30.15,ESE,113,2.5,4.5,73,0.00,,,0.00,WUHU216HW,2013-11-15 23:08:00,
2013-11-15 18:13:00,60.1,51.5,30.15,East,99,1.4,4.5,73,0.00,,,0.00,WUHU216HW,2013-11-15 23:13:00,
2013-11-15 18:18:00,59.9,51.3,30.15,ESE,113,2.5,2.5,73,0.00,,,0.00,WUHU216HW,2013-11-15 23:18:00,
2013-11-15 18:23:00,59.9,51.3,30.14,ESE,113,2.0,2.9,73,0.00,,,0.00,WUHU216HW,2013-11-15 23:23:00,
2013-11-15 18:28:00,59.8,51.1,30.14,ESE,113,1.0,3.1,73,0.00,,,0.00,WUHU216HW,2013-11-15 23:28:00,
2013-11-15 18:33:00,59.8,51.1,30.15,ESE,113,0.0,3.1,73,0.00,,,0.00,WUHU216HW,2013-11-15 23:33:00,
2013-11-15 18:38:00,59.6,50.9,30.15,ESE,113,1.3,1.3,73,0.00,,,0.00,WUHU216HW,2013-11-15 23:38:00,
2013-11-15 18:43:00,59.4,50.8,30.15,ESE,113,0.5,1.8,73,0.00,,,0.00,WUHU216HW,2013-11-15 23:43:00,
2013-11-15 18:48:00,59.4,50.8,30.15,SE,135,0.5,1.8,73,0.00,,,0.00,WUHU216HW,2013-11-15 23:48:00,
2013-11-15 18:53:00,59.4,50.8,30.15,SE,135,0.5,0.9,73,0.00,,,0.00,WUHU216HW,2013-11-15 23:53:00,
2013-11-15 18:58:00,59.2,50.6,30.15,SE,135,0.3,0.9,73,0.00,,,0.00,WUHU216HW,2013-11-15 23:58:00,
2013-11-15 19:03:00,59.0,50.4,30.15,SE,135,0.0,0.7,73,0.00,,,0.00,WUHU216HW,2013-11-16 00:03:00,
2013-11-15 19:08:00,59.0,50.4,30.16,SE,135,0.0,0.7,73,0.00,,,0.00,WUHU216HW,2013-11-16 00:08:00,
2013-11-15 19:13:00,59.0,50.8,30.16,SE,135,0.7,1.1,74,0.00,,,0.00,WUHU216HW,2013-11-16 00:13:00,
2013-11-15 19:18:00,58.9,50.6,30.16,SE,135,0.0,1.1,74,0.00,,,0.00,WUHU216HW,2013-11-16 00:18:00,
2013-11-15 19:23:00,58.9,50.6,30.16,SE,135,0.0,0.9,74,0.00,,,0.00,WUHU216HW,2013-11-16 00:23:00,
2013-11-15 19:28:00,58.9,50.6,30.16,East,90,1.1,1.3,74,0.00,,,0.00,WUHU216HW,2013-11-16 00:28:00,
2013-11-15 19:33:00,58.9,50.6,30.17,East,90,0.0,1.3,74,0.00,,,0.00,WUHU216HW,2013-11-16 00:33:00,
2013-11-15 19:38:00,58.9,50.9,30.17,East,90,0.0,0.2,75,0.00,,,0.00,WUHU216HW,2013-11-16 00:38:00,
2013-11-15 19:43:00,58.9,50.9,30.17,East,90,0.0,0.0,75,0.00,,,0.00,WUHU216HW,2013-11-16 00:43:00,
2013-11-15 19:48:00,58.9,50.9,30.16,ESE,113,1.8,1.8,75,0.00,,,0.00,WUHU216HW,2013-11-16 00:48:00,
2013-11-15 19:53:00,58.7,51.1,30.16,SE,128,1.2,2.9,76,0.00,,,0.00,WUHU216HW,2013-11-16 00:53:00,
2013-11-15 19:58:00,58.7,51.1,30.16,SE,124,1.9,3.1,76,0.00,,,0.00,WUHU216HW,2013-11-16 00:58:00,
2013-11-15 20:03:00,58.7,51.1,30.16,ENE,68,1.8,3.1,76,0.00,,,0.00,WUHU216HW,2013-11-16 01:03:00,
2013-11-15 20:08:00,58.7,51.1,30.15,SSE,158,1.8,3.8,76,0.00,,,0.00,WUHU216HW,2013-11-16 01:08:00,
2013-11-15 20:13:00,58.7,51.5,30.15,ESE,113,1.8,5.4,77,0.00,,,0.00,WUHU216HW,2013-11-16 01:13:00,
2013-11-15 20:18:00,58.7,51.8,30.16,SE,129,2.0,5.4,78,0.00,,,0.00,WUHU216HW,2013-11-16 01:18:00,
2013-11-15 20:23:00,58.5,51.3,30.16,ESE,121,1.2,2.7,77,0.00,,,0.00,WUHU216HW,2013-11-16 01:23:00,
2013-11-15 20:28:00,58.5,51.7,30.16,SE,135,1.8,2.5,78,0.00,,,0.00,WUHU216HW,2013-11-16 01:28:00,
2013-11-15 20:33:00,58.3,51.5,30.16,SE,135,0.9,2.5,78,0.00,,,0.00,WUHU216HW,2013-11-16 01:33:00,
2013-11-15 20:38:00,58.1,51.7,30.16,SE,135,1.1,1.8,79,0.00,,,0.00,WUHU216HW,2013-11-16 01:38:00,
2013-11-15 20:43:00,58.0,51.8,30.16,ESE,113,3.4,3.4,80,0.00,,,0.00,WUHU216HW,2013-11-16 01:43:00,
2013-11-15 20:48:00,57.8,51.7,30.16,ESE,118,1.5,3.4,80,0.00,,,0.00,WUHU216HW,2013-11-16 01:48:00,
2013-11-15 20:53:00,57.6,51.5,30.16,ESE,113,1.3,3.4,80,0.00,,,0.00,WUHU216HW,2013-11-16 01:53:00,
2013-11-15 20:58:00,57.6,51.5,30.16,East,90,2.2,2.7,80,0.00,,,0.00,WUHU216HW,2013-11-16 01:58:00,
2013-11-15 21:03:00,57.6,51.5,30.16,SE,135,0.9,2.2,80,0.00,,,0.00,WUHU216HW,2013-11-16 02:03:00,
2013-11-15 21:08:00,57.4,51.7,30.16,ESE,113,1.8,2.7,81,0.00,,,0.00,WUHU216HW,2013-11-16 02:08:00,
2013-11-15 21:13:00,57.4,51.7,30.16,SE,135,0.7,2.7,81,0.00,,,0.00,WUHU216HW,2013-11-16 02:13:00,
2013-11-15 21:18:00,57.2,51.5,30.17,SE,135,0.5,1.8,81,0.00,,,0.00,WUHU216HW,2013-11-16 02:18:00,
2013-11-15 21:23:00,57.2,51.5,30.17,SE,135,0.4,1.1,81,0.00,,,0.00,WUHU216HW,2013-11-16 02:23:00,
2013-11-15 21:28:00,57.2,51.5,30.17,SE,135,0.4,1.1,81,0.00,,,0.00,WUHU216HW,2013-11-16 02:28:00,
2013-11-15 21:33:00,57.2,51.5,30.17,SE,135,0.0,0.9,81,0.00,,,0.00,WUHU216HW,2013-11-16 02:33:00,
2013-11-15 21:38:00,57.2,51.5,30.17,SE,135,0.0,0.2,81,0.00,,,0.00,WUHU216HW,2013-11-16 02:38:00,
2013-11-15 21:43:00,57.2,51.5,30.17,SSW,203,0.2,0.2,81,0.00,,,0.00,WUHU216HW,2013-11-16 02:43:00,
2013-11-15 21:48:00,56.9,51.4,30.18,SSW,203,0.0,0.2,82,0.00,,,0.00,WUHU216HW,2013-11-16 02:48:00,
2013-11-15 21:53:00,56.9,51.4,30.18,SSW,203,0.0,0.2,82,0.00,,,0.00,WUHU216HW,2013-11-16 02:53:00,
2013-11-15 21:58:00,56.7,51.2,30.17,South,180,0.9,0.9,82,0.00,,,0.00,WUHU216HW,2013-11-16 02:58:00,
2013-11-15 22:03:00,56.7,51.2,30.17,SSE,158,0.9,1.1,82,0.00,,,0.00,WUHU216HW,2013-11-16 03:03:00,
2013-11-15 22:08:00,56.7,51.2,30.17,SSE,158,0.0,1.1,82,0.00,,,0.00,WUHU216HW,2013-11-16 03:08:00,
2013-11-15 22:13:00,56.7,51.6,30.17,SSE,158,0.0,0.7,83,0.00,,,0.00,WUHU216HW,2013-11-16 03:13:00,
2013-11-15 22:18:00,56.7,51.6,30.17,North,0,0.5,0.7,83,0.00,,,0.00,WUHU216HW,2013-11-16 03:18:00,
2013-11-15 22:23:00,56.7,51.6,30.17,North,0,0.0,0.7,83,0.00,,,0.00,WUHU216HW,2013-11-16 03:23:00,
2013-11-15 22:28:00,56.7,51.6,30.17,NW,315,0.4,0.4,83,0.00,,,0.00,WUHU216HW,2013-11-16 03:28:00,
2013-11-15 22:33:00,56.9,51.8,30.17,NW,315,0.2,0.4,83,0.00,,,0.00,WUHU216HW,2013-11-16 03:33:00,
2013-11-15 22:38:00,56.9,51.8,30.17,East,81,0.7,1.1,83,0.00,,,0.00,WUHU216HW,2013-11-16 03:38:00,
2013-11-15 22:43:00,57.1,52.2,30.16,East,86,0.9,1.3,84,0.00,,,0.00,WUHU216HW,2013-11-16 03:43:00,
2013-11-15 22:48:00,57.1,51.9,30.17,North,0,0.2,1.3,83,0.00,,,0.00,WUHU216HW,2013-11-16 03:48:00,
2013-11-15 22:53:00,57.1,51.9,30.17,North,0,0.2,1.1,83,0.00,,,0.00,WUHU216HW,2013-11-16 03:53:00,
2013-11-15 22:58:00,57.1,52.2,30.16,WNW,293,0.0,0.4,84,0.00,,,0.00,WUHU216HW,2013-11-16 03:58:00,
2013-11-15 23:03:00,57.1,52.2,30.16,WNW,293,0.0,0.4,84,0.00,,,0.00,WUHU216HW,2013-11-16 04:03:00,
2013-11-15 23:08:00,57.2,52.1,30.16,East,99,0.3,0.4,83,0.00,,,0.00,WUHU216HW,2013-11-16 04:08:00,
2013-11-15 23:13:00,57.2,52.1,30.16,ESE,113,0.9,1.6,83,0.00,,,0.00,WUHU216HW,2013-11-16 04:13:00,
2013-11-15 23:18:00,57.2,52.1,30.16,ESE,113,0.0,1.8,83,0.00,,,0.00,WUHU216HW,2013-11-16 04:18:00,
2013-11-15 23:23:00,57.2,52.1,30.16,ESE,113,0.0,1.8,83,0.00,,,0.00,WUHU216HW,2013-11-16 04:23:00,
2013-11-15 23:28:00,57.2,52.1,30.16,North,0,0.0,0.0,83,0.00,,,0.00,WUHU216HW,2013-11-16 04:28:00,
2013-11-15 23:33:00,57.2,52.1,30.17,North,0,0.0,0.0,83,0.00,,,0.00,WUHU216HW,2013-11-16 04:33:00,
2013-11-15 23:38:00,57.1,51.9,30.17,North,0,0.0,0.0,83,0.00,,,0.00,WUHU216HW,2013-11-16 04:38:00,
2013-11-15 23:43:00,57.1,51.9,30.17,North,0,0.2,0.2,83,0.00,,,0.00,WUHU216HW,2013-11-16 04:43:00,
2013-11-15 23:48:00,56.9,51.8,30.17,North,0,0.0,0.2,83,0.00,,,0.00,WUHU216HW,2013-11-16 04:48:00,
2013-11-15 23:53:00,56.9,51.8,30.17,North,0,0.0,0.0,83,0.00,,,0.00,WUHU216HW,2013-11-16 04:53:00,
2013-11-15 23:58:00,57.1,51.9,30.16,North,0,0.0,0.0,83,0.00,,,0.00,WUHU216HW,2013-11-16 04:58:00,